createdAt,value
2022-08-25T00:00:51.519Z,45.00
2022-08-25T00:02:55.187Z,44.80
2022-08-25T00:04:57.571Z,45.30
2022-08-25T00:07:03.193Z,44.90
2022-08-25T00:09:05.553Z,45.10
2022-08-25T00:11:08.674Z,44.90
2022-08-25T00:13:10.352Z,45.30
2022-08-25T00:15:12.023Z,45.10
2022-08-25T00:17:13.753Z,45.10
2022-08-25T00:19:17.942Z,45.60
2022-08-25T00:21:20.119Z,45.30
2022-08-25T00:23:22.967Z,45.50
2022-08-25T00:25:24.883Z,45.50
2022-08-25T00:27:27.453Z,45.80
2022-08-25T00:29:29.907Z,45.50
2022-08-25T00:31:38.819Z,45.80
2022-08-25T00:33:40.827Z,45.50
2022-08-25T00:35:42.577Z,45.50
2022-08-25T00:37:44.223Z,45.70
2022-08-25T00:39:45.943Z,46.00
2022-08-25T00:41:49.705Z,45.60
2022-08-25T00:44:01.379Z,45.60
2022-08-25T00:46:03.090Z,45.90
2022-08-25T00:48:05.317Z,45.80
2022-08-25T00:50:08.530Z,46.10
2022-08-25T00:52:12.992Z,45.80
2022-08-25T00:54:17.327Z,46.30
2022-08-25T00:56:19.187Z,46.00
2022-08-25T00:58:25.649Z,46.40
2022-08-25T01:00:30.150Z,46.30
2022-08-25T01:02:32.018Z,46.50
2022-08-25T01:04:33.768Z,46.00
2022-08-25T01:06:37.147Z,46.50
2022-08-25T01:08:38.931Z,46.20
2022-08-25T01:10:41.593Z,46.60
2022-08-25T01:12:43.294Z,46.30
2022-08-25T01:14:46.592Z,46.40
2022-08-25T01:16:50.985Z,46.70
2022-08-25T01:18:54.626Z,46.50
2022-08-25T01:20:57.705Z,46.50
2022-08-25T01:22:59.632Z,46.50
2022-08-25T01:25:03.848Z,46.40
2022-08-25T01:27:05.822Z,46.60
2022-08-25T01:29:20.905Z,47.00
2022-08-25T01:31:23.788Z,47.00
2022-08-25T01:33:26.543Z,46.90
2022-08-25T01:35:28.199Z,46.90
2022-08-25T01:37:29.839Z,46.50
2022-08-25T01:39:33.889Z,46.90
2022-08-25T01:41:36.411Z,47.40
2022-08-25T01:43:38.702Z,47.80
2022-08-25T01:45:41.864Z,47.50
2022-08-25T01:47:43.587Z,47.30
2022-08-25T01:49:45.426Z,47.10
2022-08-25T01:51:48.728Z,47.20
2022-08-25T01:53:50.879Z,47.70
2022-08-25T01:55:52.989Z,47.20
2022-08-25T01:57:56.171Z,47.30
2022-08-25T01:59:58.500Z,47.40
2022-08-25T02:02:00.416Z,47.50
2022-08-25T02:04:02.269Z,47.40
2022-08-25T02:06:05.410Z,47.80
2022-08-25T02:08:07.062Z,47.30
2022-08-25T02:10:09.295Z,47.70
2022-08-25T02:12:10.968Z,47.50
2022-08-25T02:14:13.784Z,48.00
2022-08-25T02:16:18.136Z,47.60
2022-08-25T02:18:20.376Z,48.00
2022-08-25T02:20:23.895Z,47.60
2022-08-25T02:22:25.959Z,47.90
2022-08-25T02:24:28.155Z,47.70
2022-08-25T02:26:29.949Z,48.10
2022-08-25T02:28:31.676Z,48.20
2022-08-25T02:30:33.389Z,48.00
2022-08-25T02:32:35.056Z,48.20
2022-08-25T02:34:36.765Z,48.00
2022-08-25T02:36:38.846Z,48.50
2022-08-25T02:38:40.645Z,48.20
2022-08-25T02:40:42.433Z,48.50
2022-08-25T02:42:44.665Z,48.60
2022-08-25T02:44:46.312Z,48.60
2022-08-25T02:46:48.391Z,48.40
2022-08-25T02:48:52.783Z,48.70
2022-08-25T02:50:54.416Z,48.70
2022-08-25T02:52:56.126Z,48.80
2022-08-25T02:54:57.983Z,48.40
2022-08-25T02:56:59.867Z,48.60
2022-08-25T02:59:02.479Z,48.70
2022-08-25T03:01:05.030Z,48.70
2022-08-25T03:03:07.039Z,48.80
2022-08-25T03:05:09.975Z,48.50
2022-08-25T03:07:12.600Z,49.10
2022-08-25T03:09:14.558Z,48.90
2022-08-25T03:11:17.575Z,48.70
2022-08-25T03:13:19.331Z,48.80
2022-08-25T03:15:21.058Z,49.90
2022-08-25T03:17:23.031Z,48.80
2022-08-25T03:19:24.720Z,49.30
2022-08-25T03:21:26.792Z,49.20
2022-08-25T03:23:28.541Z,49.00
2022-08-25T03:25:48.892Z,49.50
2022-08-25T03:27:51.841Z,49.10
2022-08-25T03:29:55.435Z,49.50
2022-08-25T03:32:00.950Z,49.10
2022-08-25T03:34:03.202Z,49.20
2022-08-25T03:36:05.508Z,49.20
2022-08-25T03:38:07.448Z,49.40
2022-08-25T03:40:14.737Z,49.30
2022-08-25T03:42:18.129Z,49.60
2022-08-25T03:44:20.444Z,49.40
2022-08-25T03:46:23.930Z,49.70
2022-08-25T03:48:25.583Z,50.20
2022-08-25T03:50:27.233Z,49.90
2022-08-25T03:52:28.892Z,49.90
2022-08-25T03:54:30.542Z,50.00
2022-08-25T03:56:32.280Z,49.70
2022-08-25T03:58:33.916Z,49.90
2022-08-25T04:00:35.604Z,50.00
2022-08-25T04:02:37.320Z,50.40
2022-08-25T04:04:40.134Z,50.10
2022-08-25T04:06:43.378Z,50.40
2022-08-25T04:08:45.112Z,50.40
2022-08-25T04:10:46.751Z,50.20
2022-08-25T04:12:49.304Z,50.10
2022-08-25T04:14:51.307Z,50.20
2022-08-25T04:16:53.145Z,50.30
2022-08-25T04:18:55.304Z,50.40
2022-08-25T04:21:04.570Z,50.30
2022-08-25T04:23:06.264Z,50.40
2022-08-25T04:25:08.196Z,50.70
2022-08-25T04:27:09.926Z,51.20
2022-08-25T04:29:12.510Z,50.30
2022-08-25T04:31:14.789Z,50.80
2022-08-25T04:33:16.506Z,51.10
2022-08-25T04:35:18.187Z,50.90
2022-08-25T04:37:19.896Z,51.10
2022-08-25T04:39:23.367Z,52.00
2022-08-25T04:41:25.509Z,50.80
2022-08-25T04:43:27.276Z,51.00
2022-08-25T04:45:29.204Z,50.70
2022-08-25T04:47:31.272Z,51.00
2022-08-25T04:49:32.932Z,51.40
2022-08-25T04:51:36.935Z,51.10
2022-08-25T04:53:38.994Z,50.90
2022-08-25T04:55:45.266Z,51.60
2022-08-25T04:57:48.914Z,51.10
2022-08-25T04:59:50.721Z,51.50
2022-08-25T05:01:52.526Z,51.80
2022-08-25T05:03:55.875Z,51.40
2022-08-25T05:05:57.822Z,51.20
2022-08-25T05:07:59.840Z,51.60
2022-08-25T05:10:01.533Z,51.20
2022-08-25T05:12:03.934Z,51.60
2022-08-25T05:14:05.631Z,51.60
2022-08-25T05:16:09.921Z,51.90
2022-08-25T05:18:13.329Z,52.10
2022-08-25T05:20:15.022Z,51.40
2022-08-25T05:22:16.704Z,51.40
2022-08-25T05:24:18.529Z,51.80
2022-08-25T05:26:21.206Z,51.60
2022-08-25T05:28:24.159Z,52.10
2022-08-25T05:30:25.824Z,52.00
2022-08-25T05:32:27.466Z,51.60
2022-08-25T05:34:30.065Z,51.80
2022-08-25T05:36:32.120Z,51.80
2022-08-25T05:38:34.325Z,52.20
2022-08-25T05:40:36.375Z,51.70
2022-08-25T05:42:38.137Z,51.90
2022-08-25T05:44:39.778Z,51.80
2022-08-25T05:46:41.487Z,52.20
2022-08-25T05:48:43.160Z,52.00
2022-08-25T05:50:51.165Z,52.20
2022-08-25T05:52:53.023Z,52.40
2022-08-25T05:54:54.703Z,52.20
2022-08-25T05:56:56.366Z,52.20
2022-08-25T05:58:58.546Z,52.50
2022-08-25T06:01:23.194Z,52.20
2022-08-25T06:03:24.955Z,52.50
2022-08-25T06:05:26.672Z,52.00
2022-08-25T06:07:28.414Z,52.30
2022-08-25T06:09:30.054Z,52.30
2022-08-25T06:11:31.714Z,52.00
2022-08-25T06:13:33.579Z,52.30
2022-08-25T06:15:35.266Z,52.20
2022-08-25T06:17:40.686Z,52.20
2022-08-25T06:19:42.346Z,52.50
2022-08-25T06:21:45.454Z,52.30
2022-08-25T06:23:48.629Z,52.30
2022-08-25T06:25:51.164Z,52.60
2022-08-25T06:27:53.407Z,52.30
2022-08-25T06:29:56.158Z,52.60
2022-08-25T06:32:02.821Z,52.20
2022-08-25T06:34:05.994Z,52.60
2022-08-25T06:36:08.626Z,52.30
2022-08-25T06:38:10.908Z,52.30
2022-08-25T06:40:13.608Z,52.40
2022-08-25T06:42:15.340Z,52.30
2022-08-25T06:44:17.123Z,52.10
2022-08-25T06:46:21.373Z,52.20
2022-08-25T06:48:23.929Z,52.00
2022-08-25T06:50:25.675Z,52.00
2022-08-25T06:52:29.107Z,52.10
2022-08-25T06:54:31.135Z,51.70
2022-08-25T06:56:32.909Z,52.30
2022-08-25T06:58:34.587Z,52.20
2022-08-25T07:00:36.286Z,52.10
2022-08-25T07:02:38.514Z,52.10
2022-08-25T07:04:40.249Z,52.20
2022-08-25T07:06:42.034Z,52.10
2022-08-25T07:08:44.134Z,52.10
2022-08-25T07:10:48.131Z,52.00
2022-08-25T07:12:51.714Z,51.90
2022-08-25T07:15:10.223Z,52.00
2022-08-25T07:17:15.711Z,52.10
2022-08-25T07:19:20.580Z,52.10
2022-08-25T07:21:24.849Z,52.10
2022-08-25T07:23:30.529Z,52.00
2022-08-25T07:25:32.434Z,52.00
2022-08-25T07:27:34.575Z,52.00
2022-08-25T07:29:42.673Z,52.00
2022-08-25T07:31:44.867Z,52.00
2022-08-25T07:34:13.136Z,51.70
2022-08-25T07:36:15.002Z,51.90
2022-08-25T07:38:20.736Z,52.10
2022-08-25T07:40:24.061Z,51.70
2022-08-25T07:42:28.734Z,51.90
2022-08-25T07:44:31.096Z,51.90
2022-08-25T07:46:33.787Z,52.70
2022-08-25T07:48:35.530Z,51.70
2022-08-25T07:50:42.353Z,51.70
2022-08-25T07:52:44.019Z,52.40
2022-08-25T07:54:55.010Z,51.70
2022-08-25T07:56:56.778Z,51.70
2022-08-25T07:58:58.513Z,51.60
2022-08-25T08:01:00.828Z,51.50
2022-08-25T08:03:04.220Z,51.30
2022-08-25T08:05:06.187Z,51.30
2022-08-25T08:07:12.321Z,50.90
2022-08-25T08:09:14.167Z,51.10
2022-08-25T08:11:23.947Z,51.10
2022-08-25T08:13:26.681Z,51.40
2022-08-25T08:15:29.715Z,51.60
2022-08-25T08:17:31.967Z,51.40
2022-08-25T08:19:33.903Z,51.30
2022-08-25T08:21:36.838Z,51.10
2022-08-25T08:23:38.513Z,51.30
2022-08-25T08:25:40.240Z,50.80
2022-08-25T08:27:42.943Z,51.20
2022-08-25T08:29:45.827Z,51.10
2022-08-25T08:31:48.376Z,51.30
2022-08-25T08:33:51.106Z,51.20
2022-08-25T08:35:59.036Z,51.10
2022-08-25T08:38:00.894Z,51.20
2022-08-25T08:40:03.343Z,51.20
2022-08-25T08:42:28.708Z,51.10
2022-08-25T08:44:45.600Z,51.00
2022-08-25T08:46:59.367Z,51.10
2022-08-25T08:49:04.121Z,51.10
2022-08-25T08:51:09.826Z,50.80
2022-08-25T08:53:19.449Z,51.30
2022-08-25T08:55:42.045Z,51.00
2022-08-25T08:59:51.803Z,51.00
2022-08-25T09:01:57.293Z,51.30
2022-08-25T09:04:02.853Z,51.00
2022-08-25T09:06:20.026Z,51.00
2022-08-25T09:08:21.669Z,50.90
2022-08-25T09:10:24.422Z,50.70
2022-08-25T09:12:29.126Z,50.60
2022-08-25T09:14:31.971Z,50.50
2022-08-25T09:16:52.834Z,50.60
2022-08-25T09:19:08.489Z,50.70
2022-08-25T09:21:16.045Z,50.60
2022-08-25T09:23:20.243Z,50.40
2022-08-25T09:25:48.653Z,50.30
2022-08-25T09:27:52.434Z,50.30
2022-08-25T09:30:00.336Z,50.30
2022-08-25T09:32:03.770Z,50.20
2022-08-25T09:34:27.180Z,50.20
2022-08-25T09:36:33.216Z,50.30
2022-08-25T09:38:38.599Z,50.30
2022-08-25T09:40:45.132Z,50.20
2022-08-25T09:42:51.138Z,50.10
2022-08-25T09:44:59.461Z,50.10
2022-08-25T09:47:21.855Z,50.20
2022-08-25T09:49:30.592Z,50.30
2022-08-25T09:51:42.436Z,50.20
2022-08-25T09:53:49.009Z,50.00
2022-08-25T09:56:00.273Z,50.00
2022-08-25T09:58:13.415Z,50.00
2022-08-25T10:00:18.459Z,50.00
2022-08-25T10:02:28.547Z,49.90
2022-08-25T10:04:34.652Z,49.80
2022-08-25T10:06:43.713Z,49.70
2022-08-25T10:08:46.890Z,49.60
2022-08-25T10:10:55.683Z,49.60
2022-08-25T10:13:00.773Z,49.60
2022-08-25T10:15:29.868Z,49.80
2022-08-25T10:17:33.483Z,49.70
2022-08-25T10:19:35.342Z,49.70
2022-08-25T10:21:42.906Z,49.70
2022-08-25T10:23:48.350Z,49.70
2022-08-25T10:25:59.040Z,49.60
2022-08-25T10:28:29.940Z,49.50
2022-08-25T10:30:31.591Z,49.60
2022-08-25T10:32:51.487Z,49.40
2022-08-25T10:34:56.325Z,49.30
2022-08-25T10:37:15.356Z,49.20
2022-08-25T10:39:34.585Z,49.10
2022-08-25T10:41:41.635Z,49.10
2022-08-25T10:43:53.759Z,49.00
2022-08-25T10:46:10.194Z,49.00
2022-08-25T10:48:13.076Z,48.90
2022-08-25T10:50:23.531Z,48.90
2022-08-25T10:52:57.752Z,48.90
2022-08-25T10:55:09.007Z,48.90
2022-08-25T10:57:10.718Z,48.90
2022-08-25T10:59:31.607Z,49.00
2022-08-25T11:01:42.907Z,48.90
2022-08-25T11:03:45.872Z,49.00
2022-08-25T11:05:52.972Z,48.90
2022-08-25T11:07:59.695Z,48.90
2022-08-25T11:10:07.354Z,49.00
2022-08-25T11:12:13.733Z,49.00
2022-08-25T11:14:15.358Z,49.10
2022-08-25T11:16:19.944Z,49.10
2022-08-25T11:18:22.821Z,48.90
2022-08-25T11:20:28.514Z,48.80
2022-08-25T11:22:34.701Z,48.60
2022-08-25T11:24:57.221Z,48.40
2022-08-25T11:26:59.618Z,48.40
2022-08-25T11:29:01.250Z,48.20
2022-08-25T11:31:03.993Z,47.80
2022-08-25T11:33:07.241Z,47.20
2022-08-25T11:35:12.637Z,47.60
2022-08-25T11:37:25.984Z,47.60
2022-08-25T11:39:47.195Z,47.90
2022-08-25T11:41:51.710Z,47.80
2022-08-25T11:44:12.629Z,47.60
2022-08-25T11:46:28.327Z,47.80
2022-08-25T11:48:29.998Z,47.60
2022-08-25T11:50:35.144Z,47.70
2022-08-25T11:52:46.764Z,47.70
2022-08-25T11:54:48.480Z,47.50
2022-08-25T11:56:54.783Z,47.50
2022-08-25T11:58:56.497Z,47.60
2022-08-25T12:00:59.502Z,47.20
2022-08-25T12:03:23.745Z,47.30
2022-08-25T12:05:25.906Z,47.00
2022-08-25T12:07:29.197Z,46.70
2022-08-25T12:09:31.356Z,46.70
2022-08-25T12:11:39.234Z,46.80
2022-08-25T12:13:47.732Z,46.70
2022-08-25T12:15:49.719Z,46.50
2022-08-25T12:18:14.226Z,46.40
2022-08-25T12:20:17.085Z,46.00
2022-08-25T12:22:22.165Z,45.60
2022-08-25T12:24:37.016Z,45.30
2022-08-25T12:26:50.686Z,45.30
2022-08-25T12:28:58.879Z,44.80
2022-08-25T12:31:07.537Z,44.60
2022-08-25T12:33:09.318Z,44.40
2022-08-25T12:35:24.725Z,44.30
2022-08-25T12:37:26.920Z,44.20
2022-08-25T12:39:31.412Z,44.20
2022-08-25T12:41:33.578Z,44.50
2022-08-25T12:43:37.514Z,44.20
2022-08-25T12:45:42.288Z,44.50
2022-08-25T12:47:47.323Z,44.20
2022-08-25T12:49:49.054Z,44.00
2022-08-25T12:51:57.459Z,44.30
2022-08-25T12:54:22.680Z,44.20
2022-08-25T12:56:40.812Z,43.90
2022-08-25T12:59:01.036Z,44.30
2022-08-25T13:01:35.313Z,44.10
2022-08-25T13:05:58.378Z,43.90
2022-08-25T13:08:20.316Z,43.60
2022-08-25T13:10:42.316Z,43.30
2022-08-25T13:13:02.975Z,43.40
2022-08-25T13:15:06.228Z,43.50
2022-08-25T13:17:09.594Z,43.30
2022-08-25T13:19:18.559Z,43.50
2022-08-25T13:21:24.775Z,43.40
2022-08-25T13:23:27.562Z,43.30
2022-08-25T13:25:33.165Z,43.60
2022-08-25T13:27:36.771Z,43.40
2022-08-25T13:29:49.515Z,43.60
2022-08-25T13:31:53.888Z,43.40
2022-08-25T13:33:58.553Z,43.70
2022-08-25T13:36:19.277Z,43.40
2022-08-25T13:38:20.955Z,43.30
2022-08-25T13:40:27.385Z,43.20
2022-08-25T13:42:29.419Z,43.20
2022-08-25T13:44:31.957Z,42.90
2022-08-25T13:46:35.441Z,42.80
2022-08-25T13:48:39.096Z,42.70
2022-08-25T13:50:42.666Z,42.70
2022-08-25T13:53:13.712Z,42.80
2022-08-25T13:55:20.596Z,42.60
2022-08-25T13:57:23.376Z,43.10
2022-08-25T13:59:30.997Z,42.50
2022-08-25T14:01:48.802Z,42.50
2022-08-25T14:03:52.629Z,42.40
2022-08-25T14:06:18.808Z,42.60
2022-08-25T14:08:33.044Z,42.30
2022-08-25T14:10:38.636Z,42.20
2022-08-25T14:12:40.513Z,42.20
2022-08-25T14:14:42.184Z,42.30
2022-08-25T14:16:49.740Z,42.60
2022-08-25T14:18:58.741Z,42.80
2022-08-25T14:21:06.362Z,43.00
2022-08-25T14:23:12.752Z,43.10
2022-08-25T14:25:18.130Z,43.20
2022-08-25T14:27:20.089Z,43.40
2022-08-25T14:29:22.315Z,43.40
2022-08-25T14:31:31.496Z,43.20
2022-08-25T14:33:36.501Z,43.00
2022-08-25T14:35:38.268Z,43.10
2022-08-25T14:37:40.795Z,43.30
2022-08-25T14:39:44.144Z,42.50
2022-08-25T14:41:51.154Z,43.00
2022-08-25T14:43:54.897Z,42.90
2022-08-25T14:45:57.112Z,43.20
2022-08-25T14:48:02.600Z,42.80
2022-08-25T14:50:04.527Z,42.50
2022-08-25T14:52:09.981Z,42.30
2022-08-25T14:54:13.295Z,41.90
2022-08-25T14:56:15.043Z,41.50
2022-08-25T14:58:18.390Z,41.70
2022-08-25T15:00:27.981Z,41.60
2022-08-25T15:02:30.677Z,41.30
2022-08-25T15:04:32.601Z,41.20
2022-08-25T15:06:36.045Z,40.90
2022-08-25T15:08:56.136Z,40.60
2022-08-25T15:10:58.352Z,40.70
2022-08-25T15:13:00.076Z,40.60
2022-08-25T15:15:01.777Z,40.60
2022-08-25T15:17:03.583Z,40.60
2022-08-25T15:19:06.803Z,40.80
2022-08-25T15:21:08.751Z,41.00
2022-08-25T15:23:10.460Z,41.20
2022-08-25T15:25:12.148Z,41.40
2022-08-25T15:27:15.096Z,41.70
2022-08-25T15:29:17.787Z,41.40
2022-08-25T15:31:20.428Z,41.80
2022-08-25T15:33:22.753Z,41.50
2022-08-25T15:35:27.750Z,41.40
2022-08-25T15:37:31.164Z,41.50
2022-08-25T15:39:33.050Z,41.50
2022-08-25T15:41:36.822Z,41.70
2022-08-25T15:43:38.850Z,41.20
2022-08-25T15:45:40.618Z,40.40
2022-08-25T15:47:42.317Z,40.70
2022-08-25T15:49:44.102Z,41.00
2022-08-25T15:51:45.743Z,40.60
2022-08-25T15:53:47.419Z,40.70
2022-08-25T15:55:49.490Z,40.50
2022-08-25T15:57:55.801Z,40.30
2022-08-25T15:59:57.465Z,40.10
2022-08-25T16:02:00.296Z,40.00
2022-08-25T16:04:02.594Z,39.90
2022-08-25T16:06:05.498Z,39.80
2022-08-25T16:08:15.474Z,39.80
2022-08-25T16:10:21.202Z,40.10
2022-08-25T16:12:24.364Z,39.60
2022-08-25T16:14:26.415Z,39.70
2022-08-25T16:16:30.284Z,39.60
2022-08-25T16:18:32.053Z,39.60
2022-08-25T16:20:34.732Z,39.60
2022-08-25T16:22:36.655Z,39.30
2022-08-25T16:24:44.158Z,39.20
2022-08-25T16:26:48.143Z,38.90
2022-08-25T16:28:50.438Z,38.80
2022-08-25T16:30:53.221Z,38.80
2022-08-25T16:32:55.046Z,38.70
2022-08-25T16:34:57.874Z,39.40
2022-08-25T16:36:59.650Z,38.90
2022-08-25T16:39:01.611Z,38.90
2022-08-25T16:41:08.960Z,38.70
2022-08-25T16:43:10.979Z,38.80
2022-08-25T16:45:12.696Z,38.80
2022-08-25T16:47:14.514Z,38.80
2022-08-25T16:49:19.954Z,38.90
2022-08-25T16:51:22.686Z,39.00
2022-08-25T16:53:49.916Z,38.90
2022-08-25T16:58:07.036Z,39.00
2022-08-25T17:00:12.492Z,39.10
2022-08-25T17:02:14.414Z,39.30
2022-08-25T17:04:16.299Z,39.30
2022-08-25T17:06:18.050Z,39.30
2022-08-25T17:08:29.325Z,39.50
2022-08-25T17:10:34.802Z,39.60
2022-08-25T17:12:36.891Z,39.60
2022-08-25T17:14:38.575Z,39.70
2022-08-25T17:16:40.488Z,39.80
2022-08-25T17:18:42.667Z,39.70
2022-08-25T17:20:45.216Z,39.90
2022-08-25T17:22:47.646Z,39.90
2022-08-25T17:24:53.417Z,40.00
2022-08-25T17:27:02.762Z,40.20
2022-08-25T17:29:05.325Z,40.20
2022-08-25T17:31:09.144Z,40.20
2022-08-25T17:33:11.970Z,40.40
2022-08-25T17:35:14.966Z,40.50
2022-08-25T17:37:16.641Z,40.60
2022-08-25T17:39:19.689Z,40.60
2022-08-25T17:41:24.359Z,40.60
2022-08-25T17:43:27.117Z,40.70
2022-08-25T17:45:29.936Z,40.80
2022-08-25T17:47:33.044Z,40.90
2022-08-25T17:49:34.836Z,40.90
2022-08-25T17:51:36.578Z,41.00
2022-08-25T17:53:38.651Z,41.20
2022-08-25T17:55:43.116Z,41.30
2022-08-25T17:57:44.929Z,41.30
2022-08-25T17:59:46.639Z,41.40
2022-08-25T18:01:50.043Z,41.30
2022-08-25T18:03:58.860Z,41.30
2022-08-25T18:06:00.568Z,41.30
2022-08-25T18:08:10.441Z,41.40
2022-08-25T18:10:12.937Z,41.50
2022-08-25T18:12:14.766Z,41.60
2022-08-25T18:14:20.367Z,41.70
2022-08-25T18:16:24.057Z,41.80
2022-08-25T18:18:26.668Z,41.80
2022-08-25T18:20:28.355Z,41.70
2022-08-25T18:22:30.042Z,41.70
2022-08-25T18:24:31.978Z,41.90
2022-08-25T18:26:34.194Z,41.90
2022-08-25T18:28:36.016Z,42.00
2022-08-25T18:30:37.850Z,42.00
2022-08-25T18:32:39.901Z,42.10
2022-08-25T18:34:41.564Z,42.20
2022-08-25T18:36:43.267Z,42.20
2022-08-25T18:39:05.185Z,42.40
2022-08-25T18:41:07.796Z,42.40
2022-08-25T18:43:11.762Z,42.60
2022-08-25T18:45:13.519Z,42.60
2022-08-25T18:47:15.228Z,42.70
2022-08-25T18:49:17.317Z,42.80
2022-08-25T18:51:23.173Z,42.80
2022-08-25T18:53:30.573Z,42.80
2022-08-25T18:55:39.823Z,43.00
2022-08-25T18:57:42.690Z,43.00
2022-08-25T18:59:45.203Z,43.20
2022-08-25T19:01:46.954Z,43.00
2022-08-25T19:03:49.975Z,43.10
2022-08-25T19:05:57.236Z,43.20
2022-08-25T19:08:00.319Z,43.20
2022-08-25T19:10:02.049Z,43.20
2022-08-25T19:12:04.576Z,43.90
2022-08-25T19:14:08.086Z,43.30
2022-08-25T19:16:17.860Z,43.30
2022-08-25T19:18:28.888Z,43.40
2022-08-25T19:20:31.174Z,43.40
2022-08-25T19:22:41.755Z,43.60
2022-08-25T19:24:44.827Z,43.60
2022-08-25T19:26:46.843Z,43.80
2022-08-25T19:28:49.419Z,43.80
2022-08-25T19:30:51.398Z,43.80
2022-08-25T19:32:53.836Z,43.90
2022-08-25T19:34:56.621Z,43.90
2022-08-25T19:36:59.972Z,44.00
2022-08-25T19:39:02.137Z,44.10
2022-08-25T19:41:13.976Z,44.20
2022-08-25T19:43:16.151Z,44.30
2022-08-25T19:45:20.243Z,44.40
2022-08-25T19:47:24.276Z,44.50
2022-08-25T19:49:27.944Z,44.50
2022-08-25T19:51:33.617Z,44.70
2022-08-25T19:53:35.455Z,44.60
2022-08-25T19:55:37.310Z,44.50
2022-08-25T19:57:42.977Z,44.50
2022-08-25T19:59:45.986Z,44.40
2022-08-25T20:01:49.497Z,44.50
2022-08-25T20:03:52.072Z,44.60
2022-08-25T20:05:56.492Z,44.60
2022-08-25T20:07:58.977Z,44.60
2022-08-25T20:10:01.089Z,44.60
2022-08-25T20:12:03.743Z,44.70
2022-08-25T20:14:15.116Z,44.70
2022-08-25T20:16:17.042Z,44.70
2022-08-25T20:18:20.977Z,44.80
2022-08-25T20:20:22.849Z,44.80
2022-08-25T20:22:28.712Z,44.80
2022-08-25T20:24:51.130Z,44.80
2022-08-25T20:26:59.337Z,44.90
2022-08-25T20:29:01.136Z,44.90
2022-08-25T20:31:02.822Z,45.00
2022-08-25T20:33:05.750Z,44.90
2022-08-25T20:35:13.134Z,45.00
2022-08-25T20:37:15.115Z,45.00
2022-08-25T20:39:17.814Z,45.10
2022-08-25T20:41:20.096Z,45.20
2022-08-25T20:43:21.980Z,45.10
2022-08-25T20:45:23.802Z,45.10
2022-08-25T20:47:25.692Z,45.20
2022-08-25T20:49:28.914Z,45.30
2022-08-25T20:51:40.375Z,45.20
2022-08-25T20:53:42.510Z,45.30
2022-08-25T20:55:44.196Z,45.40
2022-08-25T20:57:46.792Z,45.50
2022-08-25T20:59:49.384Z,45.60
2022-08-25T21:01:51.614Z,45.60
2022-08-25T21:03:53.312Z,45.60
2022-08-25T21:05:55.022Z,45.70
2022-08-25T21:07:56.844Z,45.80
2022-08-25T21:09:58.831Z,45.70
2022-08-25T21:12:01.460Z,45.70
2022-08-25T21:14:03.447Z,45.80
2022-08-25T21:16:08.244Z,45.70
2022-08-25T21:18:10.090Z,45.70
2022-08-25T21:20:13.585Z,45.70
2022-08-25T21:22:15.363Z,45.90
2022-08-25T21:24:18.233Z,46.00
2022-08-25T21:26:19.919Z,46.10
2022-08-25T21:28:21.610Z,46.10
2022-08-25T21:30:23.490Z,46.00
2022-08-25T21:32:25.193Z,46.10
2022-08-25T21:34:28.951Z,46.10
2022-08-25T21:36:31.802Z,46.30
2022-08-25T21:38:34.129Z,46.30
2022-08-25T21:40:39.057Z,46.30
2022-08-25T21:42:45.442Z,46.30
2022-08-25T21:44:47.372Z,46.40
2022-08-25T21:46:54.391Z,46.50
2022-08-25T21:49:00.007Z,46.60
2022-08-25T21:51:06.363Z,46.30
2022-08-25T21:53:08.965Z,46.50
2022-08-25T21:55:15.788Z,46.50
2022-08-25T21:57:19.323Z,46.60
2022-08-25T21:59:26.721Z,46.80
2022-08-25T22:01:28.486Z,46.50
2022-08-25T22:03:30.325Z,46.50
2022-08-25T22:05:35.861Z,46.70
2022-08-25T22:07:40.415Z,46.70
2022-08-25T22:09:43.399Z,46.90
2022-08-25T22:11:45.456Z,46.70
2022-08-25T22:13:48.362Z,46.90
2022-08-25T22:15:52.285Z,47.60
2022-08-25T22:17:53.946Z,46.80
2022-08-25T22:19:55.684Z,47.10
2022-08-25T22:21:57.505Z,47.20
2022-08-25T22:23:59.482Z,47.00
2022-08-25T22:26:01.137Z,47.30
2022-08-25T22:28:04.114Z,47.30
2022-08-25T22:30:06.563Z,47.10
2022-08-25T22:32:08.699Z,47.40
2022-08-25T22:34:10.635Z,47.30
2022-08-25T22:36:24.557Z,47.50
2022-08-25T22:38:26.728Z,47.50
2022-08-25T22:40:29.644Z,47.40
2022-08-25T22:42:31.411Z,47.50
2022-08-25T22:44:33.112Z,47.60
2022-08-25T22:46:34.835Z,47.60
2022-08-25T22:48:37.806Z,47.70
2022-08-25T22:50:39.486Z,47.70
2022-08-25T22:52:42.274Z,47.60
2022-08-25T22:54:44.217Z,47.70
2022-08-25T22:56:45.870Z,47.70
2022-08-25T22:58:51.429Z,47.80
2022-08-25T23:00:53.775Z,47.90
2022-08-25T23:02:55.531Z,47.80
2022-08-25T23:04:57.771Z,47.70
2022-08-25T23:07:03.886Z,47.90
2022-08-25T23:09:06.665Z,47.60
2022-08-25T23:11:09.982Z,48.00
2022-08-25T23:13:11.636Z,47.90
2022-08-25T23:15:26.802Z,48.10
2022-08-25T23:17:29.363Z,47.80
2022-08-25T23:19:31.820Z,48.10
2022-08-25T23:21:52.214Z,48.30
2022-08-25T23:23:54.281Z,48.40
2022-08-25T23:25:56.005Z,48.40
2022-08-25T23:27:58.419Z,48.30
2022-08-25T23:30:00.568Z,48.50
2022-08-25T23:32:02.688Z,48.50
2022-08-25T23:34:05.451Z,48.50
2022-08-25T23:36:10.528Z,48.40
2022-08-25T23:38:12.497Z,48.60
2022-08-25T23:40:14.275Z,48.70
2022-08-25T23:42:21.427Z,48.50
2022-08-25T23:44:23.544Z,48.60
2022-08-25T23:46:29.496Z,48.70
2022-08-25T23:48:31.425Z,48.90
2022-08-25T23:50:45.367Z,48.70
2022-08-25T23:52:47.021Z,48.80
2022-08-25T23:54:48.733Z,48.90
2022-08-25T23:56:52.047Z,48.90
2022-08-25T23:58:54.206Z,48.70
